Curta nossa página no facebook!

Fonia SBBI by Lucas Gabardo

Siga Nosso Instagram

Calendário do mês

Condições Meteorológicas SBCT

METAR atual do SBCT
SBCT 281700Z 22003KT 9999 FEW025 22/00 Q1024

Condições Meteorológicas SBBI

METAR atual do SBBI
SBBI 281600Z 23003KT CAVOK 22/02 Q1025

A aeronave encontra-se nesse momento (11:00 – 23/08) em rota de Brasília para Curitiba, com estimado de pouso na capital paranaense ao meio-dia (12:00). Após decolará para o Rio de Janeiro – Galeão. Acompanhe-o aqui: FR24 – PR-GUG

A Gol Linhas Aéreas, iniciou nesse domingo (23) a operação do seu primeiro Boeing 737-800 com o Split Scimitar Winglets. Este tipo de winglet foi desenvolvido pela Aviation Partners Boeing, permitindo uma redução de consumo de combustível de até 2%, além de ganhar mais 65 milhas náuticas no alcance de voo. Com essa adaptação, são reduzidos em média 470 toneladas de CO2 por aeronave por ano. A primeira aeronave que recebeu a adaptação foi o PR-GUG e está prevista inicialmente para ser aplicada em mais 7 aeronaves da frota da companhia.

Texto e fotos via: http://www.cnfaovivo.com.br/

Fotografou o “Scimitar” no solo do Afonso Pena? Nos envie! contato@tmacuritiba.com

ATUALIZADO 24/08 18:35Z – O spotter Anderson Raimundo enviou uma foto do PR-GUG decolando do Aeroporto Afonso Pena.

ATUALIZADO 15:50Z. A leitora Carol Lima nos enviou uma foto de dentro da aeronave. A visão dos passageiros desse novo e belo winglet!

PR-GUG

No calendário de Agosto, temos o novíssimo esquema da GOL Linhas Aéreas. A empresa lançou a sua nova identidade visual no dia 15 de Julho, durante um evento fechado para a mídia e funcionários no Aeroporto de Confins (CNF). Confira a matéria completa no nosso website parceiro CNF ao vivo!

O Boeing 737-800 de matrícula PR-GXZ foi o primeiro da frota a ganhar as novas cores.

Ainda não fotografou essa ave? Fique atento! Pois a aeronave é equipada com ADS-B e pode ser visualizada em sites como: FlightRadar24, FlightAware, Radarbox24, PlaneFinder, Virtualradar entre outros..!

Agosto2015-650px

Resoluções Disponíveis: 1280×800 | 1366×768 | 1440×900 | 1680×1024 | 1920×1200

Conforme informamos na nossa fanpage no Facebook, recebemos ontem a visita do B738 da Gol de matrícula PR-GXZ, ostentando a novíssima pintura da companhia no SBCT. A aeronave com a belíssima pintura nos visitou por duas vezes neste sábado.

Além da nova pintura da Gol, outro destaque neste sábado foi a decolagem do B763 da American Airlines que estava no solo do SBCT desde quarta-feira em manutenção. O fato da aeronave ter permanecido vários dias parqueado na ponte 6 permitiu que fossem feitos alguns registros de dois American ejuntos, além de permitir fotos da aeronave durante o dia.

Confira abaixo as fotos dessa movimentação, e os demais registros do início de Julho, feitos por nossos spotters colaboradores. Se você tiver registros feitos dentro da nossa Terminal Curitiba, não deixe de nos enviar por e-mail!